Latest Weather Observations for Bega

IDN60801

Issued at 7:35 am EST Saturday 20 September 2014 (issued every 30 minutes, with the page automatically refreshed every 10 minutes)

About weather observations | Map of weather stations | Latest weather observations for NSW | Other Formats
Station Details ID: 069139 Name: BEGA AWS Lat: -36.67 Lon: 149.82 Height: 41.0 m
Data from the previous 72 hours. | See also: Recent months at Bega
Date/Time
EST
Temp
°C
App
Temp
°C
Dew
Point
Rel
Hum
%
Delta-T
°C
Wind Press
QNH
hPa
Press
MSL
hPa
Rain
since 9 am
mm
Dir
 
Spd
km/h
Gust
km/h
Spd
kts
Gust
kts
20/07:30am 12.6 7.5 3.0 52 4.2 WSW 19 26 10 14 1024.6 1024.6 0.0
20/07:00am 11.5 6.4 3.0 56 3.7 WSW 19 30 10 16 1024.4 1024.4 0.0
20/06:30am 8.9 5.6 2.7 65 2.6 SSW 9 15 5 8 1024.3 1024.3 0.0
20/06:00am 8.9 5.6 2.5 64 2.7 SSW 9 17 5 9 1023.8 1023.8 0.0
20/05:30am 9.6 6.7 2.7 62 2.9 SW 7 15 4 8 1023.4 1023.4 0.0
20/05:00am 10.5 7.6 2.8 59 3.3 WSW 7 11 4 6 1023.1 1023.1 0.0
20/04:30am 10.7 6.7 2.8 58 3.4 SW 13 19 7 10 1022.7 1022.7 0.0
20/04:00am 10.6 6.2 2.9 59 3.3 SW 15 22 8 12 1022.5 1022.5 0.0
20/03:30am 10.6 6.2 2.9 59 3.3 SW 15 26 8 14 1022.4 1022.4 0.0
20/03:00am 10.8 6.8 3.1 59 3.3 SW 13 24 7 13 1022.1 1022.1 0.0
20/02:30am 10.4 7.8 3.0 60 3.2 SSW 6 9 3 5 1022.0 1022.0 0.0
20/02:00am 10.6 6.7 3.2 60 3.2 SW 13 20 7 11 1021.9 1021.9 0.0
20/01:30am 10.8 6.6 3.6 61 3.2 SW 15 24 8 13 1021.8 1021.8 0.0
20/01:00am 10.2 7.5 3.9 65 2.8 SSW 7 9 4 5 1021.8 1021.8 0.0
20/12:30am 11.0 8.4 4.0 62 3.1 SW 7 11 4 6 1021.5 1021.5 0.0
20/12:00am 10.5 7.9 4.4 66 2.7 SSW 7 9 4 5 1021.5 1021.5 0.0
 
Date/Time
EST
Temp
°C
App
Temp
°C
Dew
Point
Rel
Hum
%
Delta-T
°C
Wind Press
QNH
hPa
Press
MSL
hPa
Rain
since 9 am
mm
Dir
 
Spd
km/h
Gust
km/h
Spd
kts
Gust
kts
19/11:30pm 10.1 7.1 4.3 67 2.6 SW 9 13 5 7 1021.5 1021.5 0.0
19/11:00pm 11.2 8.8 4.2 62 3.1 W 6 9 3 5 1021.5 1021.5 0.0
19/10:30pm 11.7 8.3 4.2 60 3.4 W 11 17 6 9 1021.7 1021.7 0.0
19/10:00pm 11.7 8.5 4.9 63 3.1 WSW 11 15 6 8 1021.5 1021.5 0.0
19/09:30pm 11.6 9.8 3.6 58 3.6 N 2 9 1 5 1021.6 1021.6 0.0
19/09:00pm 13.1 9.7 4.0 54 4.1 SW 11 22 6 12 1021.3 1021.3 0.0
19/08:30pm 13.3 9.1 3.9 53 4.3 WSW 15 20 8 11 1021.3 1021.3 0.0
19/08:00pm 12.7 9.9 3.4 53 4.1 W 7 11 4 6 1021.3 1021.3 0.0
19/07:30pm 13.3 10.5 3.4 51 4.4 WNW 7 11 4 6 1021.0 1021.0 0.0
19/07:00pm 14.1 10.6 3.3 48 4.8 SW 11 17 6 9 1020.6 1020.6 0.0
19/06:30pm 14.6 9.9 3.1 46 5.2 SW 17 26 9 14 1020.1 1020.1 0.0
19/06:00pm 15.2 9.9 3.0 44 5.5 SW 20 28 11 15 1020.0 1020.0 0.0
19/05:30pm 15.9 10.7 3.4 43 5.7 SW 20 33 11 18 1019.7 1019.7 0.0
19/05:00pm 16.8 10.8 3.1 40 6.3 SW 24 33 13 18 1019.3 1019.3 0.0
19/04:30pm 17.5 11.5 3.4 39 6.5 WSW 24 35 13 19 1019.0 1019.0 0.0
19/04:00pm 17.6 12.6 3.5 39 6.5 WSW 19 30 10 16 1018.8 1018.8 0.0
19/03:30pm 17.7 11.7 3.2 38 6.7 WSW 24 37 13 20 1018.7 1018.7 0.0
19/03:00pm 17.1 10.5 2.3 37 6.7 WSW 26 35 14 19 1018.6 1018.6 0.0
19/02:30pm 17.8 11.7 2.9 37 6.9 WSW 24 33 13 18 1018.7 1018.7 0.0
19/02:00pm 18.7 13.2 4.1 38 6.9 WSW 22 37 12 20 1019.0 1019.0 0.0
19/01:30pm 17.6 10.8 3.1 38 6.7 WSW 28 43 15 23 1019.3 1019.3 0.0
19/01:04pm 17.4 9.7 3.3 39 6.5 WSW 33 52 18 28 1019.6 1019.6 0.0
19/01:00pm 16.8 7.8 2.4 38 6.5 WSW 39 52 21 28 1019.6 1019.6 0.0
19/12:30pm 16.7 9.1 2.7 39 6.4 WSW 32 52 17 28 1019.8 1019.8 0.0
19/12:00pm 16.1 8.4 2.5 40 6.1 WSW 32 50 17 27 1020.2 1020.2 0.0
19/11:57am 16.7 9.0 3.4 41 6.1 WSW 33 52 18 28 1020.3 1020.3 0.0
19/11:30am 16.1 7.9 2.5 40 6.1 SW 35 44 19 24 1020.6 1020.6 0.0
19/11:01am 16.1 8.4 3.2 42 5.9 SW 33 52 18 28 1020.8 1020.8 0.0
19/11:00am 16.1 8.0 3.5 43 5.8 SSW 35 52 19 28 1020.9 1020.9 0.0
19/10:58am 15.6 6.6 2.7 42 5.8 SSW 39 52 21 28 1020.7 1020.7 0.0
19/10:47am 16.6 10.0 4.0 43 5.9 WSW 28 46 15 25 1020.9 1020.9 0.0
19/10:30am 15.4 8.7 3.5 45 5.4 WSW 28 41 15 22 1021.0 1021.0 0.0
19/10:00am 14.7 7.9 2.9 45 5.3 WSW 28 43 15 23 1021.5 1021.5 0.0
19/09:30am 14.6 8.6 3.1 46 5.2 SW 24 37 13 20 1021.6 1021.6 0.0
19/09:00am 13.6 7.1 2.5 47 4.9 WSW 26 39 14 21 1021.5 1021.5 0.4
19/08:30am 12.8 7.6 2.4 49 4.5 WSW 19 26 10 14 1021.7 1021.7 0.4
19/08:00am 11.9 7.0 2.1 51 4.2 WSW 17 28 9 15 1021.6 1021.6 0.4
19/07:30am 10.8 5.8 1.4 52 3.9 WSW 17 32 9 17 1021.6 1021.6 0.4
19/07:00am 10.1 3.7 1.2 54 3.7 WSW 24 33 13 18 1021.6 1021.6 0.4
19/06:30am 8.8 4.5 1.2 59 3.1 W 13 24 7 13 1021.4 1021.4 0.4
19/06:00am 8.3 3.9 0.5 58 3.1 NW 13 19 7 10 1021.3 1021.3 0.4
19/05:30am 8.9 5.8 0.4 55 3.4 NW 6 13 3 7 1021.1 1021.1 0.4
19/05:00am 8.5 5.3 0.7 58 3.1 W 7 13 4 7 1020.8 1020.8 0.4
19/04:30am 8.4 5.5 1.3 61 2.9 WNW 6 11 3 6 1020.7 1020.7 0.4
19/04:00am 9.0 6.0 1.7 60 3.0 WSW 7 13 4 7 1020.5 1020.5 0.4
19/03:30am 9.1 4.5 1.5 59 3.1 SW 15 19 8 10 1020.2 1020.2 0.4
19/03:00am 8.7 4.5 1.8 62 2.8 SW 13 17 7 9 1020.4 1020.4 0.4
19/02:30am 10.1 4.7 1.5 55 3.6 W 19 26 10 14 1020.3 1020.3 0.4
19/02:00am 10.3 4.9 1.4 54 3.7 WSW 19 24 10 13 1020.3 1020.3 0.4
19/01:30am 10.7 4.4 1.5 53 3.9 WSW 24 32 13 17 1020.4 1020.4 0.4
19/01:00am 10.3 4.8 1.9 56 3.5 WSW 20 32 11 17 1020.8 1020.8 0.4
19/12:30am 8.8 6.0 2.2 63 2.8 W 6 11 3 6 1020.9 1020.9 0.4
19/12:00am 8.8 6.8 2.4 64 2.7 NW 2 9 1 5 1021.0 1021.0 0.4
 
Date/Time
EST
Temp
°C
App
Temp
°C
Dew
Point
Rel
Hum
%
Delta-T
°C
Wind Press
QNH
hPa
Press
MSL
hPa
Rain
since 9 am
mm
Dir
 
Spd
km/h
Gust
km/h
Spd
kts
Gust
kts
18/11:30pm 8.6 6.2 2.2 64 2.7 N 4 9 2 5 1020.9 1020.9 0.4
18/11:00pm 8.7 6.3 2.3 64 2.7 NNW 4 9 2 5 1021.0 1021.0 0.4
18/10:30pm 9.5 5.4 2.1 60 3.1 SW 13 19 7 10 1021.0 1021.0 0.4
18/10:00pm 9.7 6.6 3.4 65 2.7 WSW 9 15 5 8 1021.0 1021.0 0.4
18/09:30pm 9.3 6.1 2.9 64 2.7 WNW 9 11 5 6 1021.0 1021.0 0.4
18/09:00pm 10.9 6.6 3.2 59 3.4 W 15 24 8 13 1020.9 1020.9 0.4
18/08:30pm 10.6 8.3 2.9 59 3.3 SW 4 9 2 5 1020.8 1020.8 0.4
18/08:00pm 10.7 7.9 3.0 59 3.3 W 7 11 4 6 1020.9 1020.9 0.4
18/07:30pm 11.6 6.8 2.6 54 3.9 SW 17 26 9 14 1020.4 1020.4 0.4
18/07:00pm 12.2 6.5 2.6 52 4.2 SW 22 37 12 20 1020.1 1020.1 0.4
18/06:30pm 12.1 6.7 2.3 51 4.2 SW 20 33 11 18 1019.9 1019.9 0.4
18/06:00pm 12.1 8.5 3.1 54 4.0 WSW 11 19 6 10 1019.5 1019.5 0.4
18/05:30pm 13.0 8.2 2.8 50 4.5 SW 17 22 9 12 1019.0 1019.0 0.4
18/05:00pm 14.0 7.2 3.2 48 4.8 SSW 28 39 15 21 1018.6 1018.6 0.4
18/04:30pm 15.0 9.4 1.5 40 5.9 SW 20 24 11 13 1018.2 1018.2 0.4
18/04:00pm 15.7 9.4 1.8 39 6.1 SW 24 32 13 17 1017.7 1017.7 0.4
18/03:30pm 17.2 11.9 2.0 36 6.8 WSW 19 32 10 17 1017.5 1017.5 0.4
18/03:00pm 16.2 9.1 1.5 37 6.5 SW 28 48 15 26 1017.5 1017.5 0.4
18/02:50pm 16.1 8.9 1.0 36 6.6 SW 28 46 15 25 1017.3 1017.3 0.4
18/02:30pm 16.4 10.8 1.3 36 6.6 WSW 20 28 11 15 1017.4 1017.4 0.4
18/02:00pm 15.2 7.7 1.0 38 6.1 SW 30 43 16 23 1017.5 1017.5 0.4
18/01:30pm 16.4 8.5 0.9 35 6.8 WSW 32 44 17 24 1017.3 1017.3 0.4
18/01:00pm 15.6 7.6 0.6 36 6.4 WSW 32 50 17 27 1017.4 1017.4 0.4
18/12:59pm 15.7 7.7 0.7 36 6.5 WSW 32 50 17 27 1017.4 1017.4 0.4
18/12:30pm 14.9 6.8 0.7 38 6.1 WSW 33 44 18 24 1017.4 1017.4 0.4
18/12:02pm 15.7 7.2 0.7 36 6.5 SW 35 54 19 29 1017.6 1017.6 0.4
18/12:00pm 16.1 8.1 1.8 38 6.3 SW 33 50 18 27 1017.5 1017.5 0.4
18/11:30am 15.4 8.3 1.5 39 6.1 WSW 28 46 15 25 1017.6 1017.6 0.4
18/11:25am 15.4 7.9 1.2 38 6.2 WSW 30 48 16 26 1017.8 1017.8 0.4
18/11:00am 14.7 6.5 0.5 38 6.0 WSW 33 48 18 26 1017.7 1017.7 0.4
18/10:30am 14.2 6.3 1.2 41 5.6 WSW 32 44 17 24 1017.9 1017.9 0.4
18/10:01am 13.8 6.8 1.8 44 5.2 SW 28 46 15 25 1018.2 1018.2 0.4
18/10:00am 13.8 6.4 1.8 44 5.2 SW 30 46 16 25 1018.2 1018.2 0.4
18/09:30am 13.0 6.0 1.7 46 4.9 WSW 28 39 15 21 1017.8 - 0.4
18/08:30am 12.4 5.2 0.8 45 4.9 WSW 28 52 15 28 1017.7 - 0.2
18/08:29am 12.4 5.3 1.1 46 4.8 WSW 28 52 15 28 1017.7 - 0.2
18/08:00am 11.8 5.1 1.2 48 4.5 SW 26 43 14 23 1017.0 - 0.2
18/07:30am 11.0 5.4 1.5 52 4.0 SW 20 35 11 19 1016.9 - 0.2
18/07:00am 10.8 5.2 1.4 52 3.9 WSW 20 30 11 16 1016.7 - 0.2
18/06:30am 10.5 4.5 1.3 53 3.8 WSW 22 35 12 19 1016.2 - 0.2
18/06:00am 9.7 4.1 1.1 55 3.5 SW 20 37 11 20 1016.1 1016.2 0.2
18/05:30am 9.8 4.7 0.7 53 3.7 WSW 17 32 9 17 1015.5 - 0.2
18/05:00am 9.6 4.1 0.5 53 3.7 WSW 19 28 10 15 1015.3 - 0.2
18/04:30am 9.4 4.2 0.3 53 3.7 WSW 17 24 9 13 1015.1 - 0.2
18/04:00am 9.5 3.7 0.1 52 3.8 WSW 20 28 11 15 1014.9 - 0.2
18/03:30am 9.8 3.3 0.2 51 3.9 WSW 24 32 13 17 1014.8 - 0.2
18/03:00am 9.7 3.6 0.1 51 3.9 WSW 22 33 12 18 1014.7 1014.7 0.2
18/02:30am 9.5 3.8 0.4 53 3.7 WSW 20 30 11 16 1014.7 - 0.2
18/02:00am 9.5 3.8 0.7 54 3.6 WSW 20 26 11 14 1014.7 - 0.2
18/01:30am 9.7 3.6 0.3 52 3.8 WSW 22 35 12 19 1014.8 - 0.2
18/01:00am 9.9 2.7 0.5 52 3.8 WSW 28 41 15 22 1015.0 - 0.2
18/12:30am 8.6 3.5 0.6 57 3.2 SW 17 26 9 14 1015.2 - 0.2
18/12:00am 9.6 4.0 0.2 52 3.8 WSW 19 26 10 14 1015.2 1015.3 0.2
 
Date/Time
EST
Temp
°C
App
Temp
°C
Dew
Point
Rel
Hum
%
Delta-T
°C
Wind Press
QNH
hPa
Press
MSL
hPa
Rain
since 9 am
mm
Dir
 
Spd
km/h
Gust
km/h
Spd
kts
Gust
kts
17/11:30pm 9.9 3.8 0.3 51 3.9 WSW 22 39 12 21 1014.9 - 0.2
17/11:00pm 10.3 3.8 0.3 50 4.1 WSW 24 39 13 21 1015.1 - 0.2
17/10:30pm 10.6 4.6 0.9 51 4.0 WSW 22 32 12 17 1015.0 - 0.2
17/10:00pm 10.4 5.2 2.3 57 3.5 W 19 32 10 17 1014.8 - 0.2
17/09:30pm 10.9 3.6 2.7 57 3.5 WSW 30 43 16 23 1014.4 - 0.2
17/09:01pm 11.4 4.1 4.6 63 3.1 SW 32 50 17 27 1013.9 - 0.2
17/09:00pm 11.4 3.9 4.6 63 3.1 SW 33 50 18 27 1013.8 1013.8 0.2
17/08:30pm 12.2 6.4 6.3 67 2.8 SW 26 35 14 19 1012.7 - 0.2
17/08:00pm 12.1 7.0 7.6 74 2.2 SSW 24 30 13 16 1012.2 - 0.2
17/07:30pm 12.4 10.0 8.7 78 1.8 SW 11 17 6 9 1011.4 - 0.2
17/07:00pm 13.3 11.8 9.0 75 2.2 ENE 7 9 4 5 1010.8 - 0.2
17/06:30pm 13.9 12.0 9.1 73 2.4 E 9 13 5 7 1010.4 - 0.2
17/06:00pm 13.8 11.4 8.8 72 2.5 ESE 11 17 6 9 1010.0 1010.0 0.2
17/05:30pm 14.9 12.6 9.1 68 3.0 SE 11 19 6 10 1009.4 - 0.2
17/05:00pm 18.7 14.0 0.8 30 8.0 WSW 15 30 8 16 1008.7 - 0.2
17/04:30pm 18.9 14.3 5.4 41 6.6 WSW 19 28 10 15 1008.1 - 0.2
17/04:00pm 17.9 15.0 6.7 48 5.6 NW 11 20 6 11 1007.9 - 0.2
17/03:30pm 18.6 16.2 6.8 46 5.9 SSW 9 13 5 7 1007.6 - 0.2
17/03:00pm 18.3 15.9 7.1 48 5.6 S 9 11 5 6 1007.5 1007.5 0.2
17/02:30pm 17.5 11.5 3.4 39 6.5 SSW 24 32 13 17 1007.6 - 0.2
17/02:00pm 19.9 14.5 2.3 31 8.1 W 20 32 11 17 1007.4 - 0.2
17/01:30pm 19.5 14.1 2.4 32 7.9 W 20 26 11 14 1007.6 - 0.2
17/01:00pm 19.0 13.3 2.8 34 7.5 W 22 32 12 17 1007.8 - 0.2
17/12:30pm 18.8 12.7 2.6 34 7.5 W 24 39 13 21 1007.7 - 0.2
17/12:00pm 18.6 11.8 2.9 35 7.3 WSW 28 37 15 20 1008.2 1008.2 0.2
17/11:50am 18.4 11.4 1.9 33 7.5 WSW 28 46 15 25 1008.3 - 0.2
17/11:30am 16.9 11.6 3.2 40 6.3 W 20 33 11 18 1008.7 - 0.2
17/11:00am 17.8 13.0 4.4 41 6.4 W 19 26 10 14 1008.9 - 0.0
17/10:30am 16.4 11.4 3.5 42 5.9 W 19 24 10 13 1009.3 - 0.0
17/10:00am 15.9 11.3 6.3 53 4.7 W 20 30 11 16 1009.8 - 0.0
17/09:30am 15.5 13.3 7.8 60 3.9 S 9 15 5 8 1010.1 - 0.0
17/09:00am 15.4 12.0 7.7 60 3.8 SSW 15 20 8 11 1010.3 1010.3 6.8
17/08:30am 14.7 10.9 7.5 62 3.6 SSW 17 20 9 11 1010.6 - 6.8
17/08:00am 14.0 10.1 7.1 63 3.4 SSW 17 20 9 11 1010.6 - 6.8

Other Formats:

Comma delimited format used in spreadsheet applications
http://www.bom.gov.au/fwo/IDN60801/IDN60801.95931.axf

JavaScript Object Notation format (JSON) in row-major order
http://www.bom.gov.au/fwo/IDN60801/IDN60801.95931.json